Time;durP1;ratioP1;P1;durP2;ratioP2;P2;SDS_P1;SDS_P2;PMS_P1;PMS_P2;Temp;Humidity;BMP_temperature;BMP_pressure;BME280_temperature;BME280_humidity;BME280_pressure;Samples;Min_cycle;Max_cycle;Signal;HPM_P1;HPM_P2
2022/04/15 00:01:07;;;;;;;8.75;7.93;;;22.60;69.60;;;;;;6257788;27;89060;-73
2022/04/15 00:04:09;;;;;;;8.65;7.85;;;22.60;69.60;;;;;;6258491;27;88287;-74
2022/04/15 00:07:12;;;;;;;8.43;7.63;;;22.60;69.50;;;;;;6258355;27;87203;-73
2022/04/15 00:10:14;;;;;;;8.60;7.80;;;22.60;69.40;;;;;;6250731;27;89132;-73
2022/04/15 00:13:24;;;;;;;8.70;7.90;;;22.60;69.40;;;;;;6256759;27;88369;-73
2022/04/15 00:16:26;;;;;;;8.55;7.65;;;22.60;69.40;;;;;;6257375;28;89270;-73
2022/04/15 00:19:28;;;;;;;8.57;7.68;;;22.60;69.40;;;;;;6256646;27;88968;-73
2022/04/15 00:22:31;;;;;;;9.35;7.82;;;22.60;69.30;;;;;;6256556;27;88750;-72
2022/04/15 00:25:33;;;;;;;8.57;7.57;;;22.60;69.30;;;;;;6258264;27;87293;-74
2022/04/15 00:28:35;;;;;;;8.02;7.32;;;22.60;69.30;;;;;;6257409;27;89106;-73
2022/04/15 00:31:37;;;;;;;8.07;7.28;;;22.60;69.10;;;;;;6255851;27;89156;-74
2022/04/15 00:34:39;;;;;;;7.88;6.95;;;22.60;69.10;;;;;;6259586;27;87334;-73
2022/04/15 00:37:43;;;;;;;8.20;7.35;;;22.60;69.00;;;;;;6239922;27;87883;-74
2022/04/15 00:40:45;;;;;;;8.05;7.25;;;22.60;68.90;;;;;;6231616;28;90773;-73
2022/04/15 00:43:47;;;;;;;7.78;7.07;;;22.60;68.80;;;;;;6246403;28;88822;-73
2022/04/15 00:46:49;;;;;;;8.02;7.07;;;22.60;68.80;;;;;;6256858;27;89088;-74
2022/04/15 00:49:51;;;;;;;7.20;6.50;;;22.60;68.80;;;;;;6257288;27;89231;-72
2022/04/15 00:53:08;;;;;;;8.70;6.70;;;22.60;68.70;;;;;;6256194;27;88679;-73
2022/04/15 00:56:29;;;;;;;7.47;6.60;;;22.60;68.80;;;;;;6256809;27;89230;-74
2022/04/15 00:59:33;;;;;;;7.43;6.82;;;22.50;68.70;;;;;;6256026;27;87983;-73
2022/04/15 01:02:36;;;;;;;7.18;6.57;;;22.60;68.80;;;;;;6258302;27;88998;-73
2022/04/15 01:05:38;;;;;;;8.18;7.38;;;22.50;68.60;;;;;;6255468;27;88933;-73
2022/04/15 01:08:44;;;;;;;8.23;7.43;;;22.50;68.80;;;;;;6258030;27;89323;-74
2022/04/15 01:11:50;;;;;;;8.48;7.68;;;22.50;69.00;;;;;;6256939;27;90971;-74
2022/04/15 01:14:53;;;;;;;7.90;6.97;;;22.50;69.00;;;;;;6257535;27;88343;-73
2022/04/15 01:17:55;;;;;;;8.35;7.55;;;22.60;68.90;;;;;;6257891;27;89375;-74
2022/04/15 01:20:57;;;;;;;8.52;7.72;;;22.50;68.80;;;;;;6256454;28;87913;-74
2022/04/15 01:24:01;;;;;;;9.45;7.57;;;22.50;68.80;;;;;;6257817;27;88884;-74
2022/04/15 01:27:04;;;;;;;7.75;7.05;;;22.60;68.60;;;;;;6255155;27;89106;-73
2022/04/15 01:30:10;;;;;;;8.25;7.47;;;22.60;68.60;;;;;;6257696;27;89071;-74
2022/04/15 01:33:12;;;;;;;7.93;7.13;;;22.60;68.50;;;;;;6249603;27;88972;-73
2022/04/15 01:36:15;;;;;;;8.75;7.95;;;22.60;68.50;;;;;;6256435;27;89423;-73
2022/04/15 01:39:18;;;;;;;8.73;7.80;;;22.50;68.40;;;;;;6256004;27;89190;-74
2022/04/15 01:42:20;;;;;;;8.85;8.05;;;22.50;68.40;;;;;;6247758;27;89401;-73
2022/04/15 01:45:22;;;;;;;8.32;7.53;;;22.50;68.50;;;;;;6256082;27;88789;-73
2022/04/15 01:48:24;;;;;;;8.25;7.43;;;22.50;68.50;;;;;;6255525;27;88010;-73
2022/04/15 01:51:26;;;;;;;8.70;7.90;;;22.50;68.50;;;;;;6260146;27;87866;-74
2022/04/15 01:54:30;;;;;;;8.98;8.18;;;22.50;68.50;;;;;;6260101;27;90354;-74
2022/04/15 01:57:31;;;;;;;9.30;8.40;;;22.50;68.50;;;;;;6261201;27;87958;-73
2022/04/15 02:00:33;;;;;;;9.50;8.07;;;22.50;68.60;;;;;;6261029;27;89198;-73
2022/04/15 02:03:35;;;;;;;8.48;7.68;;;22.50;68.60;;;;;;6259271;27;89156;-73
2022/04/15 02:06:37;;;;;;;9.52;8.57;;;22.50;68.50;;;;;;6251509;27;89000;-73
2022/04/15 02:09:41;;;;;;;9.27;8.30;;;22.50;68.50;;;;;;6258411;27;89047;-73
2022/04/15 02:12:43;;;;;;;9.18;8.27;;;22.50;68.40;;;;;;6260896;27;88898;-73
2022/04/15 02:15:45;;;;;;;9.65;8.77;;;22.50;68.40;;;;;;6260732;27;88516;-73
2022/04/15 02:18:47;;;;;;;10.02;9.05;;;22.50;68.50;;;;;;6259345;27;88030;-73
2022/04/15 02:21:49;;;;;;;10.18;9.18;;;22.50;68.50;;;;;;6260669;27;88011;-73
2022/04/15 02:24:53;;;;;;;10.50;9.40;;;22.50;68.60;;;;;;6259362;27;90007;-73
2022/04/15 02:27:54;;;;;;;10.23;9.20;;;22.50;68.70;;;;;;6258281;27;89237;-73
2022/04/15 02:30:56;;;;;;;10.30;9.40;;;22.50;68.70;;;;;;6261321;27;89720;-74
2022/04/15 02:33:58;;;;;;;10.05;9.13;;;22.40;68.80;;;;;;6260260;27;89124;-74
2022/04/15 02:37:00;;;;;;;10.48;9.48;;;22.40;68.80;;;;;;6258588;27;87956;-74
2022/04/15 02:40:06;;;;;;;10.90;9.80;;;22.40;68.80;;;;;;6255176;27;89030;-73
2022/04/15 02:43:08;;;;;;;11.70;10.50;;;22.40;68.90;;;;;;6233685;28;88055;-73
2022/04/15 02:46:11;;;;;;;11.40;10.30;;;22.40;69.00;;;;;;6233011;28;86972;-73
2022/04/15 02:49:14;;;;;;;10.75;9.75;;;22.40;69.10;;;;;;6234223;28;89100;-72
2022/04/15 02:52:16;;;;;;;10.85;9.75;;;22.40;69.10;;;;;;6233893;28;89135;-73
2022/04/15 02:55:19;;;;;;;11.07;9.90;;;22.40;69.00;;;;;;6235014;28;89285;-73
2022/04/15 02:58:21;;;;;;;10.65;9.55;;;22.50;69.10;;;;;;6233648;28;89000;-74
2022/04/15 03:01:23;;;;;;;10.63;9.63;;;22.50;69.00;;;;;;6233691;28;88998;-74
2022/04/15 03:04:25;;;;;;;10.77;9.68;;;22.50;69.00;;;;;;6235773;28;86975;-74
2022/04/15 03:07:28;;;;;;;10.82;9.70;;;22.40;69.10;;;;;;6252535;28;89074;-74
2022/04/15 03:10:31;;;;;;;10.57;9.57;;;22.40;69.20;;;;;;6259599;27;89483;-74
2022/04/15 03:13:33;;;;;;;10.15;9.10;;;22.40;69.40;;;;;;6259628;27;89136;-74
2022/04/15 03:16:35;;;;;;;10.52;9.52;;;22.40;69.60;;;;;;6259899;27;87263;-73
2022/04/15 03:19:37;;;;;;;10.10;9.20;;;22.40;69.80;;;;;;6258741;27;87113;-74
2022/04/15 03:22:41;;;;;;;10.60;9.50;;;22.40;69.90;;;;;;6258167;27;89164;-73
2022/04/15 03:25:44;;;;;;;10.63;9.52;;;22.40;70.10;;;;;;6259238;27;88922;-74
2022/04/15 03:28:46;;;;;;;10.60;9.60;;;22.40;70.30;;;;;;6258243;27;89116;-74
2022/04/15 03:31:48;;;;;;;11.20;10.20;;;22.40;70.50;;;;;;6257311;27;89302;-75
2022/04/15 03:34:52;;;;;;;10.98;9.65;;;22.40;70.60;;;;;;6258794;27;88954;-75
2022/04/15 03:37:54;;;;;;;9.98;9.02;;;22.40;70.70;;;;;;6260468;27;89400;-73
2022/04/15 03:40:58;;;;;;;11.10;9.82;;;22.40;71.80;;;;;;6247239;27;89057;-74
2022/04/15 03:44:01;;;;;;;10.20;9.20;;;22.40;70.90;;;;;;6232735;28;89102;-74
2022/04/15 03:47:03;;;;;;;9.32;8.43;;;22.40;70.80;;;;;;6234920;28;88128;-75
2022/04/15 03:50:06;;;;;;;9.77;8.88;;;22.40;70.90;;;;;;6233024;28;87939;-74
2022/04/15 03:53:08;;;;;;;10.10;9.20;;;22.30;70.90;;;;;;6233367;28;87824;-75
2022/04/15 03:56:12;;;;;;;9.85;8.85;;;22.40;71.00;;;;;;6232113;28;90032;-74
2022/04/15 03:59:14;;;;;;;9.70;8.80;;;22.40;71.00;;;;;;6233849;28;90991;-75
2022/04/15 04:02:16;;;;;;;9.63;8.73;;;22.40;71.10;;;;;;6233788;28;87054;-73
2022/04/15 04:05:18;;;;;;;9.40;8.40;;;22.50;71.50;;;;;;6234321;28;87960;-75
2022/04/15 04:08:20;;;;;;;9.05;8.10;;;22.40;71.30;;;;;;6259871;27;87978;-74
2022/04/15 04:11:23;;;;;;;10.25;9.25;;;22.50;71.40;;;;;;6257097;27;89020;-74
2022/04/15 04:14:25;;;;;;;9.68;8.43;;;22.40;71.40;;;;;;6253758;27;89018;-74
2022/04/15 04:17:27;;;;;;;9.18;8.27;;;22.40;71.50;;;;;;6256770;27;88414;-74
2022/04/15 04:20:30;;;;;;;9.07;8.27;;;22.50;71.70;;;;;;6258637;27;88383;-74
2022/04/15 04:23:32;;;;;;;9.52;8.63;;;22.50;71.80;;;;;;6256852;27;89194;-74
2022/04/15 04:26:35;;;;;;;8.20;7.40;;;22.50;71.80;;;;;;6259124;27;90519;-74
2022/04/15 04:29:37;;;;;;;9.23;8.32;;;22.50;71.80;;;;;;6257512;27;87973;-73
2022/04/15 04:32:40;;;;;;;8.95;8.15;;;22.50;71.80;;;;;;6256948;27;88275;-74
2022/04/15 04:35:42;;;;;;;9.05;8.07;;;22.40;72.00;;;;;;6258692;27;89058;-73
2022/04/15 04:38:44;;;;;;;9.50;8.57;;;22.50;72.10;;;;;;6257621;27;88998;-74
2022/04/15 04:41:47;;;;;;;8.82;8.00;;;22.50;72.10;;;;;;6240439;27;88007;-73
2022/04/15 04:44:50;;;;;;;8.80;7.97;;;22.50;72.20;;;;;;6231367;28;88026;-74
2022/04/15 04:47:53;;;;;;;9.23;8.43;;;22.50;72.20;;;;;;6236977;28;88391;-74
2022/04/15 04:50:55;;;;;;;9.25;8.35;;;22.40;72.20;;;;;;6256329;27;87040;-74
2022/04/15 04:53:57;;;;;;;9.23;8.32;;;22.50;72.30;;;;;;6258364;27;89096;-74
2022/04/15 04:57:01;;;;;;;8.85;7.60;;;22.50;72.40;;;;;;6253607;27;89933;-74
2022/04/15 05:03:33;;;;;;;8.98;7.82;;;22.50;73.30;;;;;;6235500;28;87504;-73
2022/04/15 05:06:36;;;;;;;8.82;8.02;;;22.40;73.70;;;;;;6255567;27;89088;-76
2022/04/15 05:09:41;;;;;;;8.55;7.75;;;22.50;75.10;;;;;;6252788;27;88944;-73
2022/04/15 05:12:46;;;;;;;8.38;7.57;;;22.50;74.50;;;;;;6234546;28;89173;-71
2022/04/15 05:15:48;;;;;;;7.50;6.90;;;22.50;74.20;;;;;;6246812;28;89070;-72
2022/04/15 05:18:50;;;;;;;7.78;6.97;;;22.50;73.90;;;;;;6232238;28;88556;-73
2022/04/15 05:21:52;;;;;;;8.48;7.68;;;22.50;73.40;;;;;;6235028;28;88104;-78
2022/04/15 05:24:57;;;;;;;8.23;7.38;;;22.50;73.20;;;;;;6256614;27;89085;-76
2022/04/15 05:28:02;;;;;;;8.70;7.78;;;22.60;73.30;;;;;;6256129;27;88982;-74
2022/04/15 05:31:04;;;;;;;8.82;7.53;;;22.60;73.30;;;;;;6257746;27;89174;-76
2022/04/15 05:34:06;;;;;;;8.27;7.47;;;22.60;72.90;;;;;;6253735;27;89476;-75
2022/04/15 05:37:09;;;;;;;8.00;7.20;;;22.60;72.70;;;;;;6232928;28;89543;-74
2022/04/15 05:40:12;;;;;;;8.88;7.97;;;22.60;72.70;;;;;;6232393;28;89072;-75
2022/04/15 05:43:16;;;;;;;8.48;7.40;;;22.60;72.50;;;;;;6230169;28;89281;-74
2022/04/15 05:46:19;;;;;;;8.38;7.57;;;22.60;72.50;;;;;;6239550;28;89449;-75
2022/04/15 05:49:21;;;;;;;7.75;6.97;;;22.60;72.40;;;;;;6233248;27;88601;-75
2022/04/15 05:52:23;;;;;;;8.23;7.53;;;22.60;72.40;;;;;;6231473;27;88266;-75
2022/04/15 05:55:25;;;;;;;8.30;7.40;;;22.60;72.30;;;;;;6231765;28;89305;-74
2022/04/15 05:58:29;;;;;;;8.30;7.50;;;22.60;72.30;;;;;;6228092;28;89990;-75
2022/04/15 06:01:31;;;;;;;7.70;6.90;;;22.60;72.30;;;;;;6231424;28;89005;-74
2022/04/15 06:04:33;;;;;;;8.43;7.63;;;22.60;72.30;;;;;;6229835;28;88147;-74
2022/04/15 06:07:35;;;;;;;8.50;7.60;;;22.60;72.20;;;;;;6251266;28;87773;-75
2022/04/15 06:10:37;;;;;;;7.90;7.20;;;22.60;72.30;;;;;;6256296;27;89410;-73
2022/04/15 06:13:42;;;;;;;7.78;7.07;;;22.70;72.40;;;;;;6239732;27;89135;-72
2022/04/15 06:16:45;;;;;;;8.02;7.30;;;22.70;72.40;;;;;;6255318;28;89261;-73
2022/04/15 06:19:47;;;;;;;8.25;7.45;;;22.60;72.40;;;;;;6258075;27;87150;-72
2022/04/15 06:22:49;;;;;;;7.75;7.05;;;22.60;72.40;;;;;;6251323;27;89095;-74
2022/04/15 06:25:51;;;;;;;8.63;7.72;;;22.70;72.50;;;;;;6257097;27;89799;-74
2022/04/15 06:28:54;;;;;;;8.07;7.38;;;22.70;72.60;;;;;;6255043;27;90054;-73
2022/04/15 06:31:56;;;;;;;7.72;7.03;;;22.70;72.70;;;;;;6258014;27;88138;-74
2022/04/15 06:34:58;;;;;;;7.70;7.00;;;22.70;72.80;;;;;;6255932;27;88990;-73
2022/04/15 06:38:19;;;;;;;7.90;7.20;;;22.70;72.80;;;;;;6243871;27;89065;-74
2022/04/15 06:41:21;;;;;;;7.90;7.10;;;22.70;72.90;;;;;;6234273;28;88029;-73
2022/04/15 06:44:24;;;;;;;7.90;7.20;;;22.70;73.00;;;;;;6243666;28;89114;-72
2022/04/15 06:47:26;;;;;;;7.70;7.00;;;22.70;73.10;;;;;;6259710;27;87872;-73
2022/04/15 06:50:30;;;;;;;7.75;7.05;;;22.70;73.10;;;;;;6259265;27;88464;-73
2022/04/15 06:53:32;;;;;;;8.07;7.28;;;22.80;73.20;;;;;;6258959;27;88892;-73
2022/04/15 06:56:34;;;;;;;7.85;7.10;;;22.80;73.20;;;;;;6247514;28;87947;-73
2022/04/15 06:59:38;;;;;;;7.75;7.07;;;22.80;73.30;;;;;;6257798;28;90037;-74
2022/04/15 07:02:41;;;;;;;7.75;7.05;;;22.80;73.30;;;;;;6259283;27;89194;-73
2022/04/15 07:05:44;;;;;;;7.43;6.72;;;22.70;73.30;;;;;;6258900;27;87984;-75
2022/04/15 07:08:46;;;;;;;7.78;7.07;;;22.80;73.40;;;;;;6260456;27;89024;-72
2022/04/15 07:11:48;;;;;;;7.65;6.95;;;22.80;73.40;;;;;;6258176;27;88944;-74
2022/04/15 07:14:52;;;;;;;7.45;6.78;;;22.80;73.40;;;;;;6257618;27;89597;-73
2022/04/15 07:17:55;;;;;;;8.15;7.43;;;22.80;73.50;;;;;;6258860;28;89533;-73
2022/04/15 07:20:57;;;;;;;7.50;6.80;;;22.80;73.40;;;;;;6259520;27;88329;-74
2022/04/15 07:23:59;;;;;;;7.72;7.03;;;22.80;73.50;;;;;;6257684;27;88494;-74
2022/04/15 07:27:03;;;;;;;7.43;6.72;;;22.80;73.60;;;;;;6260466;27;89304;-74
2022/04/15 07:30:08;;;;;;;7.32;6.72;;;22.90;73.60;;;;;;6257796;27;90081;-74
2022/04/15 07:33:10;;;;;;;7.60;6.63;;;22.80;73.50;;;;;;6259678;27;87769;-74
2022/04/15 07:39:28;;;;;;;7.32;6.70;;;22.90;73.50;;;;;;6238099;28;87687;-75
2022/04/15 07:42:30;;;;;;;7.50;6.80;;;22.90;73.60;;;;;;6235765;27;88919;-73
2022/04/15 07:45:33;;;;;;;7.35;6.65;;;22.90;73.60;;;;;;6233918;28;88260;-73
2022/04/15 07:48:35;;;;;;;7.03;6.43;;;22.90;73.70;;;;;;6233132;28;90385;-74
2022/04/15 07:51:38;;;;;;;7.13;6.50;;;22.90;73.70;;;;;;6232537;28;88334;-74
2022/04/15 07:54:40;;;;;;;6.95;6.35;;;22.90;73.70;;;;;;6250603;28;89289;-74
2022/04/15 07:57:42;;;;;;;7.05;6.45;;;22.90;73.70;;;;;;6258124;27;89017;-73
2022/04/15 08:00:45;;;;;;;7.10;6.47;;;22.90;73.70;;;;;;6257229;27;90382;-74
2022/04/15 08:03:48;;;;;;;6.55;5.95;;;22.90;73.70;;;;;;6256454;27;89101;-74
2022/04/15 08:06:50;;;;;;;6.90;6.30;;;23.00;73.80;;;;;;6252495;27;88265;-74
2022/04/15 08:09:52;;;;;;;6.60;6.00;;;23.00;74.00;;;;;;6243421;27;89218;-74
2022/04/15 08:12:54;;;;;;;6.88;6.18;;;22.90;73.90;;;;;;6231602;28;89122;-73
2022/04/15 08:15:58;;;;;;;7.53;6.80;;;22.90;74.00;;;;;;6255542;28;88118;-74
2022/04/15 08:19:00;;;;;;;6.38;5.78;;;22.90;74.00;;;;;;6257783;27;89762;-74
2022/04/15 08:22:02;;;;;;;6.72;6.13;;;23.00;74.10;;;;;;6257458;27;88318;-74
2022/04/15 08:25:06;;;;;;;6.95;6.32;;;23.00;74.00;;;;;;6256806;27;89389;-75
2022/04/15 08:28:08;;;;;;;6.38;5.82;;;23.00;74.10;;;;;;6253688;27;88251;-73
2022/04/15 08:31:11;;;;;;;7.00;6.30;;;23.00;74.10;;;;;;6233273;28;88931;-74
2022/04/15 08:34:13;;;;;;;6.20;5.60;;;23.00;74.10;;;;;;6240139;28;87929;-72
2022/04/15 08:37:15;;;;;;;6.47;5.88;;;23.00;74.20;;;;;;6256576;27;87965;-72
2022/04/15 08:40:17;;;;;;;8.45;6.22;;;23.00;76.10;;;;;;6251256;27;87923;-73
2022/04/15 08:43:19;;;;;;;6.93;6.22;;;23.00;75.20;;;;;;6249620;28;89075;-72
2022/04/15 08:46:23;;;;;;;7.10;6.00;;;23.10;75.20;;;;;;6258436;27;89207;-72
2022/04/15 08:49:26;;;;;;;6.60;5.95;;;23.10;75.10;;;;;;6256733;27;88538;-73
2022/04/15 08:52:29;;;;;;;6.30;5.70;;;23.10;75.00;;;;;;6258543;27;89616;-73
2022/04/15 08:55:31;;;;;;;6.28;5.68;;;23.00;75.00;;;;;;6256225;27;89118;-73
2022/04/15 08:58:33;;;;;;;6.00;5.40;;;23.10;75.00;;;;;;6256222;27;89291;-72
2022/04/15 09:01:36;;;;;;;6.28;5.68;;;23.10;74.90;;;;;;6255756;27;90027;-72
2022/04/15 09:04:38;;;;;;;6.90;5.93;;;23.10;74.70;;;;;;6256800;28;88957;-73
2022/04/15 09:07:41;;;;;;;6.63;5.90;;;23.10;74.70;;;;;;6255424;27;89108;-72
2022/04/15 09:10:44;;;;;;;8.93;6.30;;;23.10;74.70;;;;;;6255561;28;87942;-73
2022/04/15 09:13:45;;;;;;;11.75;7.20;;;23.10;74.80;;;;;;6256689;27;89337;-73
2022/04/15 09:16:49;;;;;;;10.57;6.68;;;23.10;74.90;;;;;;6256695;27;88261;-73
2022/04/15 09:19:53;;;;;;;10.95;6.78;;;23.10;74.80;;;;;;6257362;28;89147;-73
2022/04/15 09:22:56;;;;;;;9.30;6.53;;;23.10;74.90;;;;;;6256785;27;88343;-72
2022/04/15 09:26:00;;;;;;;8.70;6.60;;;23.20;74.80;;;;;;6255056;27;89022;-73
2022/04/15 09:29:02;;;;;;;7.85;6.65;;;23.10;74.80;;;;;;6256655;27;88003;-73
2022/04/15 09:32:11;;;;;;;8.35;6.45;;;23.10;74.70;;;;;;6255505;28;89044;-73
2022/04/15 09:35:17;;;;;;;11.38;7.50;;;23.20;74.90;;;;;;6256255;27;88486;-73
2022/04/15 09:38:19;;;;;;;11.60;7.10;;;23.20;74.80;;;;;;6257029;27;89345;-73
2022/04/15 09:41:22;;;;;;;13.90;8.25;;;23.20;74.90;;;;;;6242075;27;89133;-73
2022/04/15 09:44:31;;;;;;;39.15;14.90;;;23.20;75.00;;;;;;6232328;28;89346;-73
2022/04/15 09:47:34;;;;;;;32.22;13.15;;;23.20;77.20;;;;;;6252049;27;89285;-73
2022/04/15 09:50:38;;;;;;;28.95;12.55;;;23.20;77.60;;;;;;6229416;28;89100;-72
2022/04/15 09:53:40;;;;;;;27.10;11.75;;;23.20;77.50;;;;;;6230803;28;88301;-73
2022/04/15 09:56:44;;;;;;;23.73;10.93;;;23.20;77.50;;;;;;6230301;28;89032;-73
2022/04/15 09:59:50;;;;;;;19.67;9.63;;;23.20;77.10;;;;;;6229348;28;88927;-73
2022/04/15 10:02:54;;;;;;;18.00;9.27;;;23.20;76.90;;;;;;6236690;27;88695;-73
2022/04/15 10:05:57;;;;;;;18.10;9.25;;;23.30;76.70;;;;;;6243881;28;89241;-73
2022/04/15 10:09:18;;;;;;;16.50;8.38;;;23.30;76.60;;;;;;6256083;27;89292;-73
2022/04/15 10:12:20;;;;;;;15.38;8.02;;;23.30;76.40;;;;;;6259791;27;89102;-73
2022/04/15 10:15:23;;;;;;;15.23;7.85;;;23.30;76.10;;;;;;6259232;27;89048;-73
2022/04/15 10:18:27;;;;;;;14.65;7.75;;;23.30;75.90;;;;;;6260291;27;89372;-72
2022/04/15 10:21:32;;;;;;;13.52;7.30;;;23.40;75.30;;;;;;6261298;27;87962;-72
2022/04/15 10:24:35;;;;;;;12.00;7.35;;;23.30;75.20;;;;;;6262128;27;88384;-73
2022/04/15 10:27:37;;;;;;;11.00;6.30;;;23.30;74.90;;;;;;6260246;27;89439;-72
2022/04/15 10:30:39;;;;;;;11.25;7.20;;;23.40;74.90;;;;;;6261704;27;89063;-72
2022/04/15 10:33:44;;;;;;;10.52;6.88;;;23.40;74.80;;;;;;6259331;27;90375;-73
2022/04/15 10:36:48;;;;;;;11.15;6.75;;;23.40;74.80;;;;;;6258876;27;89103;-72
2022/04/15 10:39:51;;;;;;;8.93;6.03;;;23.40;74.70;;;;;;6258812;27;88732;-73
2022/04/15 10:42:54;;;;;;;8.77;6.55;;;23.40;74.50;;;;;;6234866;28;88867;-72
2022/04/15 10:46:13;;;;;;;9.35;6.20;;;23.40;74.50;;;;;;6234415;28;87992;-72
2022/04/15 10:49:23;;;;;;;8.45;5.90;;;23.40;74.50;;;;;;6234533;28;89106;-72
2022/04/15 10:52:26;;;;;;;8.50;5.70;;;23.40;74.40;;;;;;6235028;28;87096;-73
2022/04/15 10:55:43;;;;;;;9.25;6.47;;;23.40;74.30;;;;;;6236701;28;88305;-73
2022/04/15 11:02:14;;;;;;;8.75;6.28;;;23.40;74.40;;;;;;6258167;28;87679;-72
2022/04/15 11:05:35;;;;;;;7.82;5.88;;;23.40;74.20;;;;;;6256607;27;89999;-72
2022/04/15 11:08:46;;;;;;;7.72;5.40;;;23.40;74.10;;;;;;6259349;28;89274;-73
2022/04/15 11:11:51;;;;;;;9.60;5.70;;;23.40;74.00;;;;;;6257998;27;88211;-72
2022/04/15 11:14:53;;;;;;;8.60;5.95;;;23.40;74.00;;;;;;6257430;27;87733;-72
2022/04/15 11:17:57;;;;;;;7.57;5.57;;;23.40;74.10;;;;;;6258447;27;89072;-73
2022/04/15 11:21:01;;;;;;;8.02;5.53;;;23.40;74.20;;;;;;6242007;27;89625;-72
2022/04/15 11:24:05;;;;;;;6.00;5.10;;;23.40;74.10;;;;;;6257773;27;89059;-73
2022/04/15 11:27:07;;;;;;;7.07;5.28;;;23.40;73.90;;;;;;6258991;27;87559;-74
2022/04/15 11:30:13;;;;;;;5.78;4.95;;;23.40;73.70;;;;;;6251259;27;89099;-73
2022/04/15 11:33:17;;;;;;;5.65;5.00;;;23.40;76.20;;;;;;6233007;28;89064;-72
2022/04/15 11:36:21;;;;;;;4.90;4.38;;;23.30;74.00;;;;;;6232694;28;90128;-72
2022/04/15 11:39:24;;;;;;;6.18;5.32;;;23.30;73.50;;;;;;6233434;28;89122;-72
2022/04/15 11:42:28;;;;;;;5.38;4.68;;;23.30;72.70;;;;;;6231168;28;88244;-72
2022/04/15 11:45:38;;;;;;;7.25;4.50;;;23.30;72.70;;;;;;6235864;28;89343;-72
2022/04/15 11:48:40;;;;;;;6.50;4.60;;;23.20;73.00;;;;;;6238154;28;89110;-72
2022/04/15 11:51:49;;;;;;;5.38;4.85;;;23.10;73.20;;;;;;6232614;28;87958;-72
2022/04/15 11:54:51;;;;;;;5.40;4.40;;;23.10;71.90;;;;;;6232276;28;87022;-72
2022/04/15 11:57:53;;;;;;;4.78;4.38;;;23.10;72.50;;;;;;6234526;28;86296;-72
2022/04/15 12:00:56;;;;;;;5.93;4.90;;;23.10;72.20;;;;;;6234616;28;88980;-72
2022/04/15 12:03:58;;;;;;;4.50;4.10;;;23.10;72.20;;;;;;6259099;27;88079;-72
2022/04/15 12:07:03;;;;;;;5.20;4.35;;;23.00;72.30;;;;;;6255194;27;89935;-71
2022/04/15 12:10:06;;;;;;;4.95;4.43;;;23.10;71.40;;;;;;6259089;27;89146;-72
2022/04/15 12:13:08;;;;;;;4.20;3.90;;;23.00;71.20;;;;;;6258856;28;89117;-72
2022/04/15 12:16:11;;;;;;;6.45;5.25;;;23.00;71.30;;;;;;6257432;27;88016;-71
2022/04/15 12:19:13;;;;;;;4.80;3.70;;;23.00;71.20;;;;;;6257438;27;88971;-72
2022/04/15 12:22:17;;;;;;;4.00;3.70;;;22.90;71.60;;;;;;6259067;27;89063;-72
2022/04/15 12:25:21;;;;;;;4.65;4.10;;;22.90;71.80;;;;;;6257702;27;87826;-72
2022/04/15 12:31:42;;;;;;;3.60;3.30;;;22.90;70.50;;;;;;6257437;28;87833;-72
2022/04/15 12:34:45;;;;;;;4.20;3.63;;;22.90;70.50;;;;;;6259600;27;87865;-72
2022/04/15 12:37:50;;;;;;;4.47;3.65;;;22.90;70.30;;;;;;6256815;27;89682;-72
2022/04/15 12:40:52;;;;;;;4.28;3.97;;;22.90;69.80;;;;;;6247966;27;89040;-72
2022/04/15 12:44:14;;;;;;;4.60;3.72;;;22.90;69.20;;;;;;6230893;28;89149;-72
2022/04/15 12:47:17;;;;;;;4.53;4.00;;;22.80;69.10;;;;;;6238211;27;89107;-72
2022/04/15 12:50:22;;;;;;;4.30;3.90;;;22.80;69.40;;;;;;6233008;28;87139;-72
2022/04/15 12:53:27;;;;;;;3.88;3.50;;;22.80;69.40;;;;;;6241996;28;90760;-72
2022/04/15 12:56:29;;;;;;;4.07;3.70;;;22.90;69.80;;;;;;6235567;28;89938;-73
2022/04/15 12:59:30;;;;;;;4.20;3.80;;;22.80;69.90;;;;;;6232742;28;89840;-72
2022/04/15 13:02:33;;;;;;;4.07;3.67;;;22.90;69.60;;;;;;6233324;27;88998;-72
2022/04/15 13:05:36;;;;;;;4.28;3.88;;;22.80;70.30;;;;;;6258051;27;88596;-73
2022/04/15 13:08:40;;;;;;;6.03;4.68;;;22.80;69.80;;;;;;6256371;27;88715;-72
2022/04/15 13:11:42;;;;;;;5.00;4.40;;;22.80;70.10;;;;;;6256878;27;87756;-73
2022/04/15 13:14:44;;;;;;;5.70;4.53;;;22.90;71.60;;;;;;6256697;27;88312;-72
2022/04/15 13:17:46;;;;;;;4.25;3.90;;;22.80;69.90;;;;;;6256226;27;89309;-72
2022/04/15 13:20:48;;;;;;;4.55;4.05;;;22.80;69.80;;;;;;6248805;27;88171;-73
2022/04/15 13:23:52;;;;;;;4.90;4.30;;;22.90;69.80;;;;;;6251075;28;88989;-73
2022/04/15 13:26:54;;;;;;;5.05;3.92;;;22.80;70.10;;;;;;6256549;27;89450;-72
2022/04/15 13:29:58;;;;;;;4.95;3.70;;;22.80;70.30;;;;;;6257718;27;88588;-72
2022/04/15 13:33:03;;;;;;;5.97;4.40;;;22.80;70.50;;;;;;6253151;27;88780;-72
2022/04/15 13:36:05;;;;;;;5.82;4.30;;;22.80;70.20;;;;;;6230456;28;86929;-73
2022/04/15 13:39:08;;;;;;;4.70;3.92;;;22.80;71.00;;;;;;6232004;28;90585;-73
2022/04/15 13:42:12;;;;;;;12.77;5.50;;;22.80;71.00;;;;;;6244555;28;88812;-72
2022/04/15 13:45:14;;;;;;;10.98;4.20;;;22.80;73.00;;;;;;6255842;27;88977;-74
2022/04/15 13:48:15;;;;;;;6.38;3.83;;;22.80;73.80;;;;;;6236393;28;89406;-74
2022/04/15 13:51:17;;;;;;;7.32;3.80;;;22.80;74.20;;;;;;6234457;28;87800;-75
2022/04/15 13:57:40;;;;;;;7.00;3.75;;;22.80;72.00;;;;;;6235157;28;87036;-76
2022/04/15 14:00:42;;;;;;;5.72;3.67;;;22.80;72.00;;;;;;6236045;28;88450;-74
2022/04/15 14:03:45;;;;;;;4.93;4.30;;;22.80;71.30;;;;;;6242734;27;88969;-73
2022/04/15 14:06:49;;;;;;;6.53;3.92;;;22.80;70.70;;;;;;6242996;28;87811;-73
2022/04/15 14:09:52;;;;;;;4.22;3.78;;;22.80;70.00;;;;;;6251423;28;90173;-74
2022/04/15 14:12:55;;;;;;;4.53;4.13;;;22.80;70.90;;;;;;6246076;27;88238;-74
2022/04/15 14:15:57;;;;;;;4.45;3.70;;;22.80;69.90;;;;;;6260107;27;89673;-75
2022/04/15 14:19:00;;;;;;;4.18;3.47;;;22.70;70.50;;;;;;6257115;27;88332;-75
2022/04/15 14:22:02;;;;;;;3.72;3.20;;;22.80;69.70;;;;;;6260973;27;90766;-71
2022/04/15 14:25:06;;;;;;;3.40;3.10;;;22.70;70.00;;;;;;6254989;27;88410;-72
2022/04/15 14:28:08;;;;;;;4.10;2.92;;;22.80;70.30;;;;;;6258155;28;89021;-73
2022/04/15 14:31:10;;;;;;;3.80;3.10;;;22.80;70.10;;;;;;6259779;27;89069;-73
2022/04/15 14:34:12;;;;;;;4.28;2.95;;;22.80;69.90;;;;;;6261833;27;86999;-73
2022/04/15 14:37:14;;;;;;;4.15;3.00;;;22.80;69.40;;;;;;6260047;27;89094;-73
2022/04/15 14:40:18;;;;;;;4.63;3.10;;;22.80;69.30;;;;;;6253354;27;88855;-73
2022/04/15 14:43:20;;;;;;;2.80;2.60;;;22.80;69.00;;;;;;6234432;28;89074;-73
2022/04/15 14:46:22;;;;;;;3.40;2.95;;;22.80;69.00;;;;;;6233725;28;88745;-73
2022/04/15 14:49:24;;;;;;;2.90;2.70;;;22.80;68.80;;;;;;6234567;28;89085;-73
2022/04/15 14:52:26;;;;;;;2.95;2.75;;;22.80;68.80;;;;;;6234057;28;89184;-73
2022/04/15 14:55:30;;;;;;;4.50;2.97;;;22.90;68.70;;;;;;6234934;28;89072;-74
2022/04/15 14:58:32;;;;;;;4.78;2.80;;;22.90;68.80;;;;;;6234210;28;89225;-73
2022/04/15 15:01:34;;;;;;;2.70;2.50;;;22.90;68.80;;;;;;6235041;28;88411;-73
2022/04/15 15:04:36;;;;;;;4.03;3.13;;;22.80;68.70;;;;;;6236783;28;89058;-73
2022/04/15 15:07:38;;;;;;;4.22;2.70;;;22.90;68.60;;;;;;6259206;27;88996;-73
2022/04/15 15:10:42;;;;;;;3.47;2.80;;;22.90;68.40;;;;;;6259878;27;88746;-73
2022/04/15 15:13:44;;;;;;;2.88;2.67;;;22.90;68.20;;;;;;6259413;27;87787;-73
2022/04/15 15:16:47;;;;;;;2.92;2.65;;;22.90;68.10;;;;;;6259108;27;89566;-72
2022/04/15 15:19:49;;;;;;;2.88;2.67;;;22.80;68.00;;;;;;6257817;27;89019;-73
2022/04/15 15:22:51;;;;;;;2.85;2.60;;;22.80;67.90;;;;;;6259652;27;88424;-73
2022/04/15 15:32:34;;;;;;;2.70;2.50;;;22.90;68.00;;;;;;6260082;28;86569;-71
2022/04/15 15:35:36;;;;;;;3.03;2.70;;;22.90;67.90;;;;;;6257498;27;89093;-73
2022/04/15 15:38:38;;;;;;;3.30;2.58;;;22.90;67.80;;;;;;6260043;27;87944;-72
2022/04/15 15:41:44;;;;;;;2.70;2.50;;;22.90;67.90;;;;;;6240063;27;89276;-73
2022/04/15 15:44:46;;;;;;;3.20;2.90;;;22.90;68.00;;;;;;6233001;28;89163;-73
2022/04/15 15:47:48;;;;;;;3.20;2.92;;;22.90;68.10;;;;;;6233286;28;87809;-73
2022/04/15 15:50:52;;;;;;;2.97;2.78;;;22.90;68.40;;;;;;6232749;28;88357;-74
2022/04/15 15:53:54;;;;;;;2.85;2.65;;;22.80;68.60;;;;;;6233179;28;89019;-74
2022/04/15 15:56:59;;;;;;;3.10;2.80;;;22.90;68.80;;;;;;6234350;28;87460;-73
2022/04/15 16:00:01;;;;;;;3.67;2.60;;;22.90;69.00;;;;;;6233380;28;89208;-74
2022/04/15 16:03:04;;;;;;;3.22;2.92;;;22.90;69.10;;;;;;6235194;28;88338;-73
2022/04/15 16:06:06;;;;;;;2.67;2.47;;;22.90;69.30;;;;;;6248188;28;88085;-74
2022/04/15 16:09:08;;;;;;;3.00;2.70;;;22.90;69.40;;;;;;6257297;27;88053;-74
2022/04/15 16:12:11;;;;;;;2.90;2.70;;;22.90;69.40;;;;;;6256537;27;90071;-73
2022/04/15 16:15:13;;;;;;;3.42;3.13;;;22.90;69.50;;;;;;6258915;27;87818;-73